Αρχική σελίδα
METAR-TAF:

METAR-TAF

Αεροδρόμια :

Μίντγουαιη, Ηνωμένες Πολιτείες Αμερικής

γεωγραφικό πλάτος: 28-13N, γεωγραφικό μήκος: 177-22W, υψόμετρο: 4 μ

METAR: λείπει

Χρόνος: 22:46 (08:46 UTC)

Πρόγνωση Καιρού

Η αναφορά έγινε 3 ώρες και 26 λεπτά πριν, στις 05:20 UTC
Η πρόγνωση ισχύει από τις 26 στις 06 UTC έως τις 27 στις 06 UTC
Άνεμος 12 kt από BA
Ορατότητα: 10 χλμ
Διάσπαρτα νέφη σε ύψος 2000 πόδια
Αρκετά νέφη σε ύψος 3500 πόδια
Όμβροι σε κοντινή απόσταση,

TAF: PMDY 260520Z 2606/2706 04012KT P6SM VCSH SCT020 BKN035 AMD NOT SKED

Μετεωρολογικές αναφορές και προγνώσεις για περισσότερα από 4000 αεροδρόμια (δελτία METAR και TAF).

Οι διαθέσιμοι σταθμοί απεικονίζονται στο χάρτη με κίτρινες και κόκκινες κουκκίδες.

Μετακινήστε το ποντίκι πάνω από τις κουκκίδες για να δείτε το όνομα του σταθμού.

Στη συνέχεια, κάντε κλικ για να δείτε τις μετεωρολογικές αναφορές και τις προγνώσεις καιρού.

Για να αλλάξετε το χάρτη: κάντε κλικ στα πράσινα κουμπιά με τον μαύρο σταυρό για να ζουμάρετε, στο πράσινο κουμπί με την παύλα για να αφαιρέσετε το ζουμ ή στα πράσινα βέλη για να αντιπαραβάλλετε χάρτες.


METAR-TAF: